Time,TemperatureF,DewpointF,PressureIn,WindDirection,WindDirectionDegrees,WindSpeedMPH,WindSpeedGustMPH,Humidity,HourlyPrecipIn,Conditions,Clouds,dailyrainin,SoftwareType,DateUTC
2013-05-28 00:02:00,64.0,64.0,29.92,SSE,152,0.0,0.0,99,0.00,,,2.52,,2013-05-28 04:02:00,
2013-05-28 00:13:00,64.0,64.0,29.92,SSE,152,0.0,0.0,99,0.00,,,2.52,,2013-05-28 04:13:00,
2013-05-28 00:22:00,64.0,64.0,29.92,SSE,152,0.0,0.0,99,0.00,,,2.52,,2013-05-28 04:22:00,
2013-05-28 00:33:00,64.0,64.0,29.92,SSE,168,0.0,6.0,99,0.00,,,2.52,,2013-05-28 04:33:00,
2013-05-28 00:43:00,64.0,64.0,29.92,SSE,168,0.0,6.0,99,0.00,,,2.52,,2013-05-28 04:43:00,
2013-05-28 00:52:00,64.0,64.0,29.92,SSW,200,0.0,0.0,99,0.00,,,2.52,,2013-05-28 04:52:00,
2013-05-28 01:02:00,64.0,64.0,29.93,SSW,213,3.0,8.0,99,0.00,,,2.51,,2013-05-28 05:02:00,
2013-05-28 01:12:00,64.0,64.0,29.93,SSW,213,3.0,8.0,99,0.00,,,2.51,,2013-05-28 05:12:00,
2013-05-28 01:22:00,64.0,64.0,29.94,WSW,237,2.0,5.0,99,0.00,,,2.50,,2013-05-28 05:22:00,
2013-05-28 01:33:00,64.0,64.0,29.92,SW,228,8.0,13.0,99,0.00,,,2.46,,2013-05-28 05:33:00,
2013-05-28 01:42:00,64.0,64.0,29.92,SW,228,8.0,13.0,99,0.00,,,2.46,,2013-05-28 05:42:00,
2013-05-28 01:52:00,64.0,64.0,29.92,WSW,246,6.0,7.0,99,0.00,,,2.45,,2013-05-28 05:52:00,
2013-05-28 02:02:00,65.0,65.0,29.92,SW,220,9.0,12.0,99,0.01,,,2.37,,2013-05-28 06:02:00,
2013-05-28 02:12:00,65.0,65.0,29.92,SW,220,9.0,12.0,99,0.01,,,2.37,,2013-05-28 06:12:00,
2013-05-28 02:21:00,65.0,65.0,29.92,SW,228,6.0,10.0,99,0.02,,,2.29,,2013-05-28 06:21:00,
2013-05-28 02:32:00,65.0,65.0,29.91,SW,216,5.0,7.0,99,0.02,,,2.11,,2013-05-28 06:32:00,
2013-05-28 02:41:00,65.0,65.0,29.91,SW,216,5.0,7.0,99,0.02,,,2.11,,2013-05-28 06:41:00,
2013-05-28 02:51:00,65.0,65.0,29.91,SW,218,7.0,9.0,99,0.02,,,2.01,,2013-05-28 06:51:00,
2013-05-28 03:01:00,65.0,65.0,29.91,SW,218,10.0,15.0,99,0.01,,,1.74,,2013-05-28 07:01:00,
2013-05-28 03:11:00,65.0,65.0,29.91,SW,218,10.0,15.0,99,0.01,,,1.74,,2013-05-28 07:11:00,
2013-05-28 03:21:00,65.0,65.0,29.90,SSW,210,1.0,12.0,99,0.00,,,1.56,,2013-05-28 07:21:00,
2013-05-28 03:32:00,65.0,65.0,29.90,SSW,207,3.0,6.0,99,0.00,,,1.28,,2013-05-28 07:32:00,
2013-05-28 03:42:00,65.0,65.0,29.90,SSW,207,3.0,6.0,99,0.00,,,1.28,,2013-05-28 07:42:00,
2013-05-28 03:52:00,64.0,64.0,29.89,SW,222,1.0,5.0,99,0.00,,,1.23,,2013-05-28 07:52:00,
2013-05-28 04:02:00,64.0,64.0,29.88,SW,216,5.0,7.0,99,0.00,,,1.09,,2013-05-28 08:02:00,
2013-05-28 04:11:00,64.0,64.0,29.88,SW,216,5.0,7.0,99,0.00,,,1.09,,2013-05-28 08:11:00,
2013-05-28 04:22:00,64.0,64.0,29.88,SSW,207,7.0,12.0,99,0.00,,,1.03,,2013-05-28 08:22:00,
2013-05-28 04:32:00,64.0,64.0,29.88,SW,223,7.0,10.0,99,0.00,,,0.90,,2013-05-28 08:32:00,
2013-05-28 04:42:00,64.0,64.0,29.88,SW,223,7.0,10.0,99,0.00,,,0.90,,2013-05-28 08:42:00,
2013-05-28 04:51:00,64.0,64.0,29.89,SW,225,6.0,8.0,99,0.00,,,0.86,,2013-05-28 08:51:00,
2013-05-28 05:01:00,64.0,64.0,29.89,SSW,198,7.0,9.0,99,0.00,,,0.71,,2013-05-28 09:01:00,
2013-05-28 05:11:00,64.0,64.0,29.89,SSW,198,7.0,9.0,99,0.00,,,0.71,,2013-05-28 09:11:00,
2013-05-28 05:21:00,64.0,64.0,29.89,SSW,204,6.0,7.0,99,0.00,,,0.70,,2013-05-28 09:21:00,
2013-05-28 05:33:00,64.0,64.0,29.88,SSW,212,8.0,9.0,99,0.00,,,0.67,,2013-05-28 09:33:00,
2013-05-28 05:42:00,64.0,64.0,29.88,SSW,212,8.0,9.0,99,0.00,,,0.67,,2013-05-28 09:42:00,
2013-05-28 05:53:00,64.0,64.0,29.88,SW,219,5.0,7.0,99,0.00,,,0.64,,2013-05-28 09:53:00,
2013-05-28 06:03:00,64.0,64.0,29.89,South,170,0.0,5.0,99,0.00,,,0.64,,2013-05-28 10:03:00,
2013-05-28 06:12:00,64.0,64.0,29.89,South,170,0.0,5.0,99,0.00,,,0.64,,2013-05-28 10:12:00,
2013-05-28 06:22:00,64.0,64.0,29.88,South,188,5.0,7.0,99,0.00,,,0.64,,2013-05-28 10:22:00,
2013-05-28 06:32:00,63.0,63.0,29.89,SSE,147,0.0,0.0,99,0.00,,,0.64,,2013-05-28 10:32:00,
2013-05-28 06:42:00,63.0,63.0,29.89,SSE,147,0.0,0.0,99,0.00,,,0.64,,2013-05-28 10:42:00,
2013-05-28 06:53:00,63.0,63.0,29.89,South,191,3.0,5.0,99,0.00,,,0.64,,2013-05-28 10:53:00,
2013-05-28 07:02:00,63.0,63.0,29.89,SW,218,7.0,8.0,99,0.00,,,0.64,,2013-05-28 11:02:00,
2013-05-28 07:11:00,63.0,63.0,29.89,SW,218,7.0,8.0,99,0.00,,,0.64,,2013-05-28 11:11:00,
2013-05-28 07:22:00,64.0,64.0,29.89,SSW,208,7.0,9.0,99,0.00,,,0.64,,2013-05-28 11:22:00,
2013-05-28 07:32:00,65.0,65.0,29.90,SW,227,7.0,10.0,99,0.00,,,0.63,,2013-05-28 11:32:00,
2013-05-28 07:42:00,65.0,65.0,29.90,SW,227,7.0,10.0,99,0.00,,,0.63,,2013-05-28 11:42:00,
2013-05-28 07:52:00,65.0,65.0,29.91,WSW,240,9.0,13.0,99,0.00,,,0.63,,2013-05-28 11:52:00,
2013-05-28 08:01:00,66.0,66.0,29.91,SW,235,12.0,13.0,99,0.00,,,0.63,,2013-05-28 12:01:00,
2013-05-28 08:11:00,66.0,66.0,29.91,SW,235,12.0,13.0,99,0.00,,,0.63,,2013-05-28 12:11:00,
2013-05-28 08:21:00,66.0,66.0,29.91,WSW,241,8.0,14.0,99,0.00,,,0.63,,2013-05-28 12:21:00,
2013-05-28 08:32:00,67.0,67.0,29.91,SW,232,8.0,12.0,99,0.00,,,0.63,,2013-05-28 12:32:00,
2013-05-28 08:42:00,67.0,67.0,29.91,SW,232,8.0,12.0,99,0.00,,,0.63,,2013-05-28 12:42:00,
2013-05-28 08:52:00,67.0,67.0,29.90,SW,234,8.0,12.0,99,0.00,,,0.63,,2013-05-28 12:52:00,
2013-05-28 09:01:00,68.0,67.0,29.89,SW,220,9.0,12.0,98,0.00,,,0.63,,2013-05-28 13:01:00,
2013-05-28 09:11:00,68.0,67.0,29.89,SW,220,9.0,12.0,98,0.00,,,0.63,,2013-05-28 13:11:00,
2013-05-28 09:21:00,69.0,68.0,29.89,SW,229,12.0,14.0,97,0.00,,,0.63,,2013-05-28 13:21:00,
2013-05-28 09:32:00,70.0,68.0,29.89,WSW,239,10.0,13.0,95,0.00,,,0.63,,2013-05-28 13:32:00,
2013-05-28 09:42:00,70.0,68.0,29.89,WSW,239,10.0,13.0,95,0.00,,,0.63,,2013-05-28 13:42:00,
2013-05-28 09:52:00,71.0,69.0,29.89,SW,226,10.0,18.0,94,0.00,,,0.63,,2013-05-28 13:52:00,
2013-05-28 10:02:00,71.0,69.0,29.90,WSW,240,12.0,14.0,93,0.00,,,0.63,,2013-05-28 14:02:00,
2013-05-28 10:11:00,71.0,69.0,29.90,WSW,240,12.0,14.0,93,0.00,,,0.63,,2013-05-28 14:11:00,
2013-05-28 10:21:00,71.0,69.0,29.90,WSW,244,8.0,15.0,93,0.00,,,0.63,,2013-05-28 14:21:00,
2013-05-28 10:32:00,72.0,69.0,29.90,WSW,237,12.0,16.0,91,0.00,,,0.63,,2013-05-28 14:32:00,
2013-05-28 10:42:00,72.0,69.0,29.90,WSW,237,12.0,16.0,91,0.00,,,0.63,,2013-05-28 14:42:00,
2013-05-28 10:52:00,72.0,69.0,29.91,WSW,252,13.0,16.0,90,0.00,,,0.63,,2013-05-28 14:52:00,
2013-05-28 11:01:00,72.0,69.0,29.91,WSW,252,13.0,16.0,90,0.00,,,0.63,,2013-05-28 15:01:00,
2013-05-28 11:11:00,72.0,69.0,29.91,WSW,252,13.0,16.0,90,0.00,,,0.63,,2013-05-28 15:11:00,
2013-05-28 11:21:00,73.0,70.0,29.91,WSW,240,10.0,14.0,89,0.00,,,0.63,,2013-05-28 15:21:00,
2013-05-28 11:33:00,73.0,70.0,29.91,WSW,246,8.0,13.0,90,0.00,,,0.55,,2013-05-28 15:33:00,
2013-05-28 11:43:00,73.0,70.0,29.91,WSW,246,8.0,13.0,90,0.00,,,0.55,,2013-05-28 15:43:00,
2013-05-28 11:52:00,73.0,70.0,29.90,SW,229,8.0,16.0,91,0.00,,,0.55,,2013-05-28 15:52:00,
2013-05-28 12:03:00,74.0,71.0,29.90,SW,229,12.0,20.0,89,0.00,,,0.54,,2013-05-28 16:03:00,
2013-05-28 12:12:00,74.0,71.0,29.90,SW,229,12.0,20.0,89,0.00,,,0.54,,2013-05-28 16:12:00,
2013-05-28 12:22:00,74.0,70.0,29.90,SW,224,10.0,13.0,88,0.00,,,0.54,,2013-05-28 16:22:00,
2013-05-28 12:33:00,73.0,70.0,29.88,SSW,210,13.0,15.0,89,0.00,,,0.54,,2013-05-28 16:33:00,
2013-05-28 12:42:00,73.0,70.0,29.88,SSW,210,13.0,15.0,89,0.00,,,0.54,,2013-05-28 16:42:00,
2013-05-28 12:52:00,74.0,71.0,29.85,South,191,13.0,26.0,89,0.00,,,0.54,,2013-05-28 16:52:00,
2013-05-28 13:02:00,75.0,71.0,29.87,SW,228,15.0,21.0,87,0.00,,,0.54,,2013-05-28 17:02:00,
2013-05-28 13:12:00,75.0,71.0,29.87,SW,228,15.0,21.0,87,0.00,,,0.54,,2013-05-28 17:12:00,
2013-05-28 13:22:00,75.0,71.0,29.87,SW,228,15.0,21.0,87,0.00,,,0.54,,2013-05-28 17:22:00,
2013-05-28 13:32:00,77.0,71.0,29.87,SW,225,15.0,22.0,83,0.00,,,0.54,,2013-05-28 17:32:00,
2013-05-28 13:42:00,77.0,71.0,29.87,WSW,253,10.0,16.0,83,0.00,,,0.54,,2013-05-28 17:42:00,
2013-05-28 13:52:00,77.0,71.0,29.87,WSW,253,10.0,16.0,83,0.00,,,0.54,,2013-05-28 17:52:00,
2013-05-28 14:01:00,78.0,72.0,29.86,SW,223,8.0,15.0,81,0.00,,,0.54,,2013-05-28 18:01:00,
2013-05-28 14:11:00,78.0,72.0,29.86,SW,223,8.0,15.0,81,0.00,,,0.54,,2013-05-28 18:11:00,
2013-05-28 14:21:00,78.0,71.0,29.86,SW,235,12.0,17.0,80,0.00,,,0.53,,2013-05-28 18:21:00,
2013-05-28 14:32:00,78.0,71.0,29.87,SW,227,15.0,25.0,79,0.00,,,0.53,,2013-05-28 18:32:00,
2013-05-28 14:42:00,78.0,71.0,29.86,WSW,253,15.0,25.0,79,0.00,,,0.53,,2013-05-28 18:42:00,
2013-05-28 14:52:00,78.0,71.0,29.86,WSW,253,15.0,25.0,79,0.00,,,0.53,,2013-05-28 18:52:00,
2013-05-28 15:01:00,79.0,71.0,29.86,WSW,243,13.0,21.0,77,0.00,,,0.53,,2013-05-28 19:01:00,
2013-05-28 15:11:00,79.0,71.0,29.86,WSW,243,13.0,21.0,77,0.00,,,0.53,,2013-05-28 19:11:00,
2013-05-28 15:21:00,79.0,71.0,29.86,SW,236,12.0,18.0,76,0.00,,,0.53,,2013-05-28 19:21:00,
2013-05-28 15:32:00,79.0,71.0,29.86,WSW,253,10.0,16.0,76,0.00,,,0.53,,2013-05-28 19:32:00,
2013-05-28 15:41:00,79.0,71.0,29.86,WSW,253,10.0,16.0,76,0.00,,,0.53,,2013-05-28 19:41:00,
2013-05-28 15:52:00,79.0,70.0,29.86,SW,228,13.0,17.0,75,0.00,,,0.53,,2013-05-28 19:52:00,
2013-05-28 16:01:00,80.0,70.0,29.86,WSW,245,9.0,14.0,72,0.00,,,0.53,,2013-05-28 20:01:00,
2013-05-28 16:11:00,80.0,70.0,29.86,WSW,245,9.0,14.0,72,0.00,,,0.53,,2013-05-28 20:11:00,
2013-05-28 16:22:00,81.0,71.0,29.86,SW,234,12.0,18.0,71,0.00,,,0.53,,2013-05-28 20:22:00,
2013-05-28 16:32:00,80.0,71.0,29.86,West,274,9.0,10.0,73,0.00,,,0.53,,2013-05-28 20:32:00,
2013-05-28 16:42:00,80.0,71.0,29.86,West,274,9.0,10.0,73,0.00,,,0.53,,2013-05-28 20:42:00,
2013-05-28 16:52:00,80.0,71.0,29.87,West,263,9.0,15.0,73,0.00,,,0.53,,2013-05-28 20:52:00,
2013-05-28 17:01:00,80.0,71.0,29.87,WSW,258,10.0,21.0,74,0.00,,,0.53,,2013-05-28 21:01:00,
2013-05-28 17:11:00,80.0,71.0,29.87,WSW,241,9.0,13.0,74,0.00,,,0.53,,2013-05-28 21:11:00,
2013-05-28 17:21:00,80.0,71.0,29.87,WSW,241,9.0,13.0,74,0.00,,,0.53,,2013-05-28 21:21:00,
2013-05-28 17:33:00,80.0,71.0,29.86,SW,219,12.0,18.0,73,0.00,,,0.53,,2013-05-28 21:33:00,
2013-05-28 17:43:00,80.0,71.0,29.86,WSW,252,7.0,12.0,73,0.00,,,0.53,,2013-05-28 21:43:00,
2013-05-28 17:53:00,80.0,71.0,29.86,WSW,252,7.0,12.0,73,0.00,,,0.53,,2013-05-28 21:53:00,
2013-05-28 18:02:00,80.0,70.0,29.86,WSW,239,12.0,16.0,71,0.00,,,0.53,,2013-05-28 22:02:00,
2013-05-28 18:12:00,80.0,70.0,29.86,SW,217,9.0,12.0,71,0.00,,,0.53,,2013-05-28 22:12:00,
2013-05-28 18:22:00,80.0,70.0,29.86,SW,217,9.0,12.0,71,0.00,,,0.53,,2013-05-28 22:22:00,
2013-05-28 18:32:00,80.0,70.0,29.86,WSW,248,7.0,13.0,72,0.00,,,0.53,,2013-05-28 22:32:00,
2013-05-28 18:42:00,81.0,70.0,29.86,WSW,254,9.0,10.0,69,0.00,,,0.47,,2013-05-28 22:42:00,
2013-05-28 18:52:00,81.0,70.0,29.86,WSW,254,9.0,10.0,69,0.00,,,0.47,,2013-05-28 22:52:00,
2013-05-28 19:02:00,81.0,70.0,29.87,WSW,239,14.0,18.0,69,0.00,,,0.17,,2013-05-28 23:02:00,
2013-05-28 19:11:00,81.0,70.0,29.86,SW,230,10.0,20.0,69,0.00,,,0.16,,2013-05-28 23:11:00,
2013-05-28 19:21:00,81.0,70.0,29.86,SW,230,10.0,20.0,69,0.00,,,0.16,,2013-05-28 23:21:00,
2013-05-28 19:32:00,80.0,68.0,29.86,WSW,255,12.0,15.0,68,0.00,,,0.14,,2013-05-28 23:32:00,
2013-05-28 19:42:00,80.0,68.0,29.86,WSW,255,12.0,15.0,68,0.00,,,0.14,,2013-05-28 23:42:00,
2013-05-28 19:52:00,80.0,68.0,29.86,SW,232,12.0,16.0,67,0.00,,,0.13,,2013-05-28 23:52:00,
2013-05-28 20:02:00,80.0,68.0,29.86,WSW,246,7.0,14.0,68,0.00,,,0.11,,2013-05-29 00:02:00,
2013-05-28 20:11:00,80.0,68.0,29.86,WSW,246,7.0,14.0,68,0.00,,,0.11,,2013-05-29 00:11:00,
2013-05-28 20:21:00,80.0,68.0,29.85,SW,234,8.0,9.0,67,0.00,,,0.09,,2013-05-29 00:21:00,
2013-05-28 20:32:00,80.0,68.0,29.84,SW,226,9.0,12.0,67,0.00,,,0.06,,2013-05-29 00:32:00,
2013-05-28 20:41:00,80.0,68.0,29.84,SW,226,9.0,12.0,67,0.00,,,0.06,,2013-05-29 00:41:00,
2013-05-28 20:52:00,79.0,68.0,29.84,SW,216,6.0,10.0,68,0.00,,,0.05,,2013-05-29 00:52:00,
2013-05-28 21:01:00,79.0,68.0,29.84,SW,215,8.0,9.0,69,0.00,,,0.02,,2013-05-29 01:01:00,
2013-05-28 21:11:00,78.0,67.0,29.84,SW,215,7.0,9.0,70,0.00,,,0.02,,2013-05-29 01:11:00,
2013-05-28 21:22:00,78.0,67.0,29.84,SW,215,7.0,9.0,70,0.00,,,0.02,,2013-05-29 01:22:00,
2013-05-28 21:32:00,78.0,68.0,29.85,SW,227,8.0,9.0,72,0.00,,,0.02,,2013-05-29 01:32:00,
2013-05-28 21:42:00,78.0,68.0,29.85,SW,227,8.0,9.0,72,0.00,,,0.02,,2013-05-29 01:42:00,
2013-05-28 21:52:00,77.0,67.0,29.85,SW,216,6.0,8.0,72,0.00,,,0.02,,2013-05-29 01:52:00,
2013-05-28 22:02:00,77.0,68.0,29.84,SW,217,7.0,10.0,74,0.00,,,0.02,,2013-05-29 02:02:00,
2013-05-28 22:12:00,76.0,67.0,29.85,SSW,208,9.0,12.0,75,0.00,,,0.02,,2013-05-29 02:12:00,
2013-05-28 22:21:00,76.0,67.0,29.85,SSW,208,9.0,12.0,75,0.00,,,0.02,,2013-05-29 02:21:00,
2013-05-28 22:32:00,76.0,68.0,29.87,SW,220,8.0,12.0,76,0.00,,,0.02,,2013-05-29 02:32:00,
2013-05-28 22:42:00,76.0,68.0,29.87,SW,223,8.0,12.0,76,0.00,,,0.02,,2013-05-29 02:42:00,
2013-05-28 22:51:00,76.0,68.0,29.87,SW,223,8.0,12.0,76,0.00,,,0.02,,2013-05-29 02:51:00,
2013-05-28 23:02:00,76.0,68.0,29.89,SW,230,7.0,9.0,77,0.00,,,0.02,,2013-05-29 03:02:00,
2013-05-28 23:12:00,76.0,68.0,29.89,SW,230,7.0,9.0,77,0.00,,,0.02,,2013-05-29 03:12:00,
2013-05-28 23:21:00,76.0,68.0,29.90,SW,219,5.0,6.0,77,0.00,,,0.02,,2013-05-29 03:21:00,
2013-05-28 23:33:00,76.0,68.0,29.90,SW,227,7.0,9.0,77,0.00,,,0.02,,2013-05-29 03:33:00,
2013-05-28 23:43:00,76.0,68.0,29.90,SW,227,7.0,9.0,77,0.00,,,0.02,,2013-05-29 03:43:00,
2013-05-28 23:53:00,76.0,69.0,29.90,SW,236,6.0,9.0,78,0.00,,,0.02,,2013-05-29 03:53:00,